createdAt,value
2022-10-06T00:00:37.632Z,0.00
2022-10-06T00:01:37.689Z,0.00
2022-10-06T00:02:37.650Z,0.00
2022-10-06T00:03:37.594Z,0.00
2022-10-06T00:04:37.585Z,0.00
2022-10-06T00:05:37.565Z,0.00
2022-10-06T00:06:37.595Z,0.00
2022-10-06T00:07:37.544Z,0.00
2022-10-06T00:08:37.534Z,0.00
2022-10-06T00:09:37.535Z,0.00
2022-10-06T00:10:37.514Z,0.00
2022-10-06T00:11:37.504Z,0.00
2022-10-06T00:12:37.500Z,0.00
2022-10-06T00:13:37.486Z,0.00
2022-10-06T00:14:37.471Z,0.00
2022-10-06T00:15:37.481Z,0.00
2022-10-06T00:16:37.466Z,0.00
2022-10-06T00:17:37.430Z,0.00
2022-10-06T00:18:37.428Z,0.00
2022-10-06T00:19:37.429Z,0.00
2022-10-06T00:20:37.407Z,0.00
2022-10-06T00:21:37.415Z,0.00
2022-10-06T00:22:37.399Z,0.00
2022-10-06T00:23:37.378Z,0.00
2022-10-06T00:24:37.367Z,0.00
2022-10-06T00:25:37.356Z,0.00
2022-10-06T00:26:37.348Z,0.00
2022-10-06T00:27:37.330Z,0.00
2022-10-06T00:28:37.381Z,0.00
2022-10-06T00:29:37.319Z,0.00
2022-10-06T00:30:37.291Z,0.00
2022-10-06T00:31:37.306Z,0.00
2022-10-06T00:32:37.273Z,0.00
2022-10-06T00:33:37.260Z,0.00
2022-10-06T00:34:37.240Z,0.00
2022-10-06T00:35:37.248Z,0.00
2022-10-06T00:36:37.241Z,0.00
2022-10-06T00:37:37.239Z,0.00
2022-10-06T00:38:37.190Z,0.00
2022-10-06T00:39:37.194Z,0.00
2022-10-06T00:40:37.184Z,0.00
2022-10-06T00:41:37.191Z,0.00
2022-10-06T00:42:37.141Z,0.00
2022-10-06T00:43:37.163Z,0.00
2022-10-06T00:44:37.132Z,0.00
2022-10-06T00:45:37.112Z,0.00
2022-10-06T00:46:37.178Z,0.00
2022-10-06T00:47:37.128Z,0.00
2022-10-06T00:48:37.094Z,0.00
2022-10-06T00:49:37.105Z,0.00
2022-10-06T00:50:37.062Z,0.00
2022-10-06T00:51:37.075Z,0.00
2022-10-06T00:52:37.022Z,0.00
2022-10-06T00:53:37.040Z,0.00
2022-10-06T00:54:37.022Z,0.00
2022-10-06T00:55:37.235Z,0.00
2022-10-06T00:56:37.007Z,0.00
2022-10-06T00:57:36.975Z,0.00
2022-10-06T00:58:36.974Z,0.00
2022-10-06T00:59:36.943Z,0.00
2022-10-06T01:00:36.953Z,0.00
2022-10-06T01:01:36.984Z,0.00
2022-10-06T01:02:36.964Z,0.00
2022-10-06T01:03:36.904Z,0.00
2022-10-06T01:04:36.904Z,0.00
2022-10-06T01:05:36.876Z,0.00
2022-10-06T01:06:36.886Z,0.00
2022-10-06T01:07:36.875Z,0.00
2022-10-06T01:08:36.846Z,0.00
2022-10-06T01:09:36.844Z,0.00
2022-10-06T01:10:36.818Z,0.00
2022-10-06T01:11:36.826Z,0.00
2022-10-06T01:12:36.800Z,0.00
2022-10-06T01:13:36.788Z,0.00
2022-10-06T01:14:36.779Z,0.00
2022-10-06T01:15:37.066Z,0.00
2022-10-06T01:16:36.779Z,0.00
2022-10-06T01:17:36.747Z,0.00
2022-10-06T01:18:36.748Z,0.00
2022-10-06T01:19:36.718Z,0.00
2022-10-06T01:20:36.705Z,0.00
2022-10-06T01:21:36.721Z,0.00
2022-10-06T01:22:36.693Z,0.00
2022-10-06T01:23:36.667Z,0.00
2022-10-06T01:24:36.658Z,0.00
2022-10-06T01:25:36.649Z,0.00
2022-10-06T01:26:36.651Z,0.00
2022-10-06T01:27:36.633Z,0.00
2022-10-06T01:28:36.717Z,0.00
2022-10-06T01:29:36.610Z,0.00
2022-10-06T01:30:36.579Z,0.00
2022-10-06T01:31:36.646Z,0.00
2022-10-06T01:32:36.571Z,0.00
2022-10-06T01:33:36.559Z,0.00
2022-10-06T01:34:36.542Z,0.00
2022-10-06T01:35:36.542Z,0.00
2022-10-06T01:36:36.520Z,0.00
2022-10-06T01:37:36.501Z,0.00
2022-10-06T01:38:36.492Z,0.00
2022-10-06T01:39:36.491Z,0.00
2022-10-06T01:40:36.471Z,0.00
2022-10-06T01:41:36.491Z,0.00
2022-10-06T01:42:36.472Z,0.00
2022-10-06T01:43:36.446Z,0.00
2022-10-06T01:44:36.432Z,0.00
2022-10-06T01:45:36.421Z,0.00
2022-10-06T01:46:36.471Z,0.00
2022-10-06T01:47:36.413Z,0.00
2022-10-06T01:48:36.384Z,0.00
2022-10-06T01:49:36.372Z,0.00
2022-10-06T01:50:36.358Z,0.00
2022-10-06T01:51:36.353Z,0.00
2022-10-06T01:52:36.330Z,0.00
2022-10-06T01:53:36.313Z,0.00
2022-10-06T01:54:36.303Z,0.00
2022-10-06T01:55:36.310Z,0.00
2022-10-06T01:56:36.305Z,0.00
2022-10-06T01:57:36.267Z,0.00
2022-10-06T01:58:36.267Z,0.00
2022-10-06T01:59:36.262Z,0.00
2022-10-06T02:00:36.250Z,0.00
2022-10-06T02:01:36.291Z,0.00
2022-10-06T02:02:36.226Z,0.00
2022-10-06T02:03:36.217Z,0.00
2022-10-06T02:04:36.195Z,0.00
2022-10-06T02:05:36.174Z,0.00
2022-10-06T02:06:36.278Z,0.00
2022-10-06T02:07:36.148Z,0.00
2022-10-06T02:08:36.146Z,0.00
2022-10-06T02:09:36.136Z,0.00
2022-10-06T02:10:36.125Z,0.00
2022-10-06T02:11:36.158Z,0.00
2022-10-06T02:12:36.097Z,0.00
2022-10-06T02:13:36.089Z,0.00
2022-10-06T02:14:36.079Z,0.00
2022-10-06T02:15:36.150Z,0.00
2022-10-06T02:16:36.084Z,0.00
2022-10-06T02:17:36.059Z,0.00
2022-10-06T02:18:36.031Z,0.00
2022-10-06T02:19:36.032Z,0.00
2022-10-06T02:20:36.020Z,0.00
2022-10-06T02:21:36.028Z,0.00
2022-10-06T02:22:35.970Z,0.00
2022-10-06T02:23:35.979Z,0.00
2022-10-06T02:24:35.959Z,0.00
2022-10-06T02:25:35.952Z,0.00
2022-10-06T02:26:35.953Z,0.00
2022-10-06T02:27:35.929Z,0.00
2022-10-06T02:28:35.972Z,0.00
2022-10-06T02:29:35.897Z,0.00
2022-10-06T02:30:35.909Z,0.00
2022-10-06T02:31:35.910Z,0.00
2022-10-06T02:32:35.860Z,0.00
2022-10-06T02:33:35.852Z,0.00
2022-10-06T02:34:35.857Z,0.00
2022-10-06T02:35:35.840Z,0.00
2022-10-06T02:36:35.831Z,0.00
2022-10-06T02:37:35.825Z,0.00
2022-10-06T02:38:35.791Z,0.00
2022-10-06T02:39:35.798Z,0.00
2022-10-06T02:40:35.774Z,0.00
2022-10-06T02:41:35.783Z,0.00
2022-10-06T02:42:35.754Z,0.00
2022-10-06T02:43:35.746Z,0.00
2022-10-06T02:44:35.722Z,0.00
2022-10-06T02:45:35.723Z,0.00
2022-10-06T02:46:35.920Z,0.00
2022-10-06T02:47:35.698Z,0.00
2022-10-06T02:48:35.666Z,0.00
2022-10-06T02:49:35.665Z,0.00
2022-10-06T02:50:35.652Z,0.00
2022-10-06T02:51:35.664Z,0.00
2022-10-06T02:52:35.625Z,0.00
2022-10-06T02:53:35.605Z,0.00
2022-10-06T02:54:35.625Z,0.00
2022-10-06T02:55:35.593Z,0.00
2022-10-06T02:56:35.605Z,0.00
2022-10-06T02:57:35.586Z,0.00
2022-10-06T02:58:35.592Z,0.00
2022-10-06T02:59:35.554Z,0.00
2022-10-06T03:00:35.561Z,0.00
2022-10-06T03:01:35.579Z,0.00
2022-10-06T03:02:35.567Z,0.00
2022-10-06T03:03:35.515Z,0.00
2022-10-06T03:04:35.518Z,0.00
2022-10-06T03:05:35.489Z,0.00
2022-10-06T03:06:35.457Z,0.00
2022-10-06T03:07:35.479Z,0.00
2022-10-06T03:08:35.447Z,0.00
2022-10-06T03:09:35.417Z,0.00
2022-10-06T03:10:35.419Z,0.00
2022-10-06T03:11:35.417Z,0.00
2022-10-06T03:12:35.430Z,0.00
2022-10-06T03:13:35.369Z,0.00
2022-10-06T03:14:35.378Z,0.00
2022-10-06T03:15:35.367Z,0.00
2022-10-06T03:16:35.366Z,0.00
2022-10-06T03:17:35.318Z,0.00
2022-10-06T03:18:35.347Z,0.00
2022-10-06T03:19:35.302Z,0.00
2022-10-06T03:20:35.298Z,0.00
2022-10-06T03:21:35.317Z,0.00
2022-10-06T03:22:35.281Z,0.00
2022-10-06T03:23:35.270Z,0.00
2022-10-06T03:24:35.249Z,0.00
2022-10-06T03:25:35.258Z,0.00
2022-10-06T03:26:35.243Z,0.00
2022-10-06T03:27:35.228Z,0.00
2022-10-06T03:28:35.245Z,0.00
2022-10-06T03:29:35.201Z,0.00
2022-10-06T03:30:35.179Z,0.00
2022-10-06T03:31:35.174Z,0.00
2022-10-06T03:32:35.172Z,0.00
2022-10-06T03:33:35.153Z,0.00
2022-10-06T03:34:35.132Z,0.00
2022-10-06T03:35:35.138Z,0.00
2022-10-06T03:36:35.122Z,0.00
2022-10-06T03:37:35.122Z,0.00
2022-10-06T03:38:35.093Z,0.00
2022-10-06T03:39:35.072Z,0.00
2022-10-06T03:40:35.072Z,0.00
2022-10-06T03:41:35.042Z,0.00
2022-10-06T03:42:35.062Z,0.00
2022-10-06T03:43:35.055Z,0.00
2022-10-06T03:44:35.073Z,0.00
2022-10-06T03:45:35.014Z,0.00
2022-10-06T03:46:35.086Z,0.00
2022-10-06T03:47:35.009Z,0.00
2022-10-06T03:48:34.967Z,0.00
2022-10-06T03:49:34.974Z,0.00
2022-10-06T03:50:34.958Z,0.00
2022-10-06T03:51:34.923Z,0.00
2022-10-06T03:52:34.943Z,0.00
2022-10-06T03:53:34.914Z,0.00
2022-10-06T03:54:34.910Z,0.00
2022-10-06T03:55:34.885Z,0.00
2022-10-06T03:56:34.875Z,0.00
2022-10-06T03:57:34.894Z,0.00
2022-10-06T03:58:34.843Z,0.00
2022-10-06T03:59:34.856Z,0.00
2022-10-06T04:00:34.859Z,0.00
2022-10-06T04:01:34.859Z,0.00
2022-10-06T04:02:34.830Z,0.00
2022-10-06T04:03:34.800Z,0.00
2022-10-06T04:04:34.775Z,0.00
2022-10-06T04:05:34.756Z,0.00
2022-10-06T04:06:34.766Z,0.00
2022-10-06T04:07:34.768Z,0.00
2022-10-06T04:08:34.727Z,0.00
2022-10-06T04:09:34.726Z,0.00
2022-10-06T04:10:34.718Z,0.00
2022-10-06T04:11:34.695Z,0.00
2022-10-06T04:12:34.688Z,0.00
2022-10-06T04:13:34.706Z,0.00
2022-10-06T04:14:34.673Z,0.00
2022-10-06T04:15:34.828Z,0.00
2022-10-06T04:16:34.788Z,0.00
2022-10-06T04:17:34.658Z,0.00
2022-10-06T04:18:34.612Z,0.00
2022-10-06T04:19:34.598Z,0.00
2022-10-06T04:20:34.612Z,0.00
2022-10-06T04:21:34.580Z,0.00
2022-10-06T04:22:34.568Z,0.00
2022-10-06T04:23:34.571Z,0.00
2022-10-06T04:24:34.560Z,0.00
2022-10-06T04:25:34.530Z,0.00
2022-10-06T04:26:34.528Z,0.00
2022-10-06T04:27:34.532Z,0.00
2022-10-06T04:28:34.833Z,0.00
2022-10-06T04:29:34.480Z,0.00
2022-10-06T04:30:34.506Z,0.00
2022-10-06T04:31:34.541Z,0.00
2022-10-06T04:32:34.462Z,0.00
2022-10-06T04:33:34.442Z,0.00
2022-10-06T04:34:34.460Z,0.00
2022-10-06T04:35:34.420Z,0.00
2022-10-06T04:36:34.411Z,0.00
2022-10-06T04:37:34.430Z,0.00
2022-10-06T04:38:34.390Z,0.00
2022-10-06T04:39:34.362Z,0.00
2022-10-06T04:40:34.387Z,0.00
2022-10-06T04:41:34.351Z,0.00
2022-10-06T04:42:35.453Z,0.00
2022-10-06T04:43:34.322Z,0.00
2022-10-06T04:44:34.322Z,0.00
2022-10-06T04:45:34.350Z,0.00
2022-10-06T04:46:43.749Z,0.00
2022-10-06T04:47:35.294Z,0.00
2022-10-06T04:48:34.285Z,0.00
2022-10-06T04:49:34.271Z,0.00
2022-10-06T04:50:34.252Z,0.00
2022-10-06T04:51:34.244Z,0.00
2022-10-06T04:52:34.267Z,0.00
2022-10-06T04:53:34.217Z,0.00
2022-10-06T04:54:34.205Z,0.00
2022-10-06T04:55:34.226Z,0.00
2022-10-06T04:56:34.198Z,0.00
2022-10-06T04:57:34.186Z,0.00
2022-10-06T04:58:34.163Z,0.00
2022-10-06T04:59:34.164Z,0.00
2022-10-06T05:00:34.131Z,0.00
2022-10-06T05:01:34.147Z,0.00
2022-10-06T05:02:34.173Z,0.00
2022-10-06T05:03:34.140Z,0.00
2022-10-06T05:04:34.090Z,0.00
2022-10-06T05:05:34.094Z,0.00
2022-10-06T05:06:34.320Z,0.00
2022-10-06T05:07:34.076Z,0.00
2022-10-06T05:08:34.045Z,0.00
2022-10-06T05:09:34.035Z,0.00
2022-10-06T05:10:34.031Z,0.00
2022-10-06T05:11:34.015Z,0.00
2022-10-06T05:12:34.051Z,0.00
2022-10-06T05:13:34.003Z,0.00
2022-10-06T05:14:33.976Z,0.00
2022-10-06T05:15:33.977Z,0.00
2022-10-06T05:16:34.020Z,0.00
2022-10-06T05:17:33.946Z,0.00
2022-10-06T05:18:33.938Z,0.00
2022-10-06T05:19:33.931Z,0.00
2022-10-06T05:20:33.896Z,0.00
2022-10-06T05:21:33.908Z,0.00
2022-10-06T05:22:33.907Z,0.00
2022-10-06T05:23:34.107Z,0.00
2022-10-06T05:24:33.860Z,0.00
2022-10-06T05:25:33.858Z,0.00
2022-10-06T05:26:33.835Z,0.00
2022-10-06T05:27:33.831Z,0.00
2022-10-06T05:28:34.307Z,0.00
2022-10-06T05:29:33.810Z,0.00
2022-10-06T05:30:33.817Z,0.00
2022-10-06T05:31:33.830Z,0.00
2022-10-06T05:32:36.095Z,5.62
2022-10-06T05:33:33.762Z,5.62
2022-10-06T05:34:33.761Z,5.62
2022-10-06T05:35:33.740Z,5.62
2022-10-06T05:36:33.776Z,5.62
2022-10-06T05:37:33.750Z,5.62
2022-10-06T05:38:33.757Z,5.62
2022-10-06T05:39:33.697Z,11.25
2022-10-06T05:40:33.688Z,11.25
2022-10-06T05:41:33.679Z,11.25
2022-10-06T05:42:33.701Z,11.25
2022-10-06T05:43:33.650Z,11.25
2022-10-06T05:44:33.643Z,11.25
2022-10-06T05:45:33.660Z,16.88
2022-10-06T05:46:33.662Z,16.88
2022-10-06T05:47:33.620Z,16.88
2022-10-06T05:48:33.599Z,16.88
2022-10-06T05:49:33.594Z,16.88
2022-10-06T05:50:33.595Z,22.50
2022-10-06T05:51:33.541Z,22.50
2022-10-06T05:52:33.571Z,22.50
2022-10-06T05:53:33.557Z,22.50
2022-10-06T05:54:33.512Z,28.12
2022-10-06T05:55:33.522Z,28.12
2022-10-06T05:56:33.520Z,28.12
2022-10-06T05:57:33.502Z,33.75
2022-10-06T05:58:33.975Z,33.75
2022-10-06T05:59:33.488Z,33.75
2022-10-06T06:00:33.478Z,39.38
2022-10-06T06:01:33.510Z,39.38
2022-10-06T06:02:33.487Z,39.38
2022-10-06T06:03:33.432Z,39.38
2022-10-06T06:04:33.400Z,45.00
2022-10-06T06:05:33.419Z,45.00
2022-10-06T06:06:33.388Z,45.00
2022-10-06T06:07:33.441Z,45.00
2022-10-06T06:08:33.573Z,50.62
2022-10-06T06:09:33.365Z,50.62
2022-10-06T06:10:33.346Z,50.62
2022-10-06T06:11:33.334Z,56.25
2022-10-06T06:12:33.344Z,56.25
2022-10-06T06:13:33.304Z,56.25
2022-10-06T06:14:33.295Z,61.88
2022-10-06T06:15:33.296Z,61.88
2022-10-06T06:16:33.330Z,61.88
2022-10-06T06:17:33.275Z,61.88
2022-10-06T06:18:33.327Z,67.50
2022-10-06T06:19:33.246Z,67.50
2022-10-06T06:20:33.225Z,67.50
2022-10-06T06:21:33.214Z,73.12
2022-10-06T06:22:33.217Z,73.12
2022-10-06T06:23:33.196Z,73.12
2022-10-06T06:24:33.175Z,73.12
2022-10-06T06:25:33.186Z,78.75
2022-10-06T06:26:33.166Z,78.75
2022-10-06T06:27:33.157Z,78.75
2022-10-06T06:28:33.953Z,78.75
2022-10-06T06:29:33.142Z,84.38
2022-10-06T06:30:33.128Z,84.38
2022-10-06T06:31:33.146Z,84.38
2022-10-06T06:32:33.119Z,90.00
2022-10-06T06:33:33.078Z,90.00
2022-10-06T06:34:33.087Z,90.00
2022-10-06T06:35:33.078Z,90.00
2022-10-06T06:36:33.066Z,95.62
2022-10-06T06:37:33.041Z,95.62
2022-10-06T06:38:33.504Z,95.62
2022-10-06T06:39:33.031Z,95.62
2022-10-06T06:40:33.002Z,101.25
2022-10-06T06:41:32.986Z,101.25
2022-10-06T06:42:33.058Z,101.25
2022-10-06T06:43:33.238Z,101.25
2022-10-06T06:44:32.963Z,101.25
2022-10-06T06:45:32.949Z,95.62
2022-10-06T06:46:33.045Z,101.25
2022-10-06T06:47:32.931Z,101.25
2022-10-06T06:48:33.374Z,101.25
2022-10-06T06:49:32.948Z,101.25
2022-10-06T06:50:32.891Z,95.62
2022-10-06T06:51:32.878Z,101.25
2022-10-06T06:52:32.898Z,106.88
2022-10-06T06:53:32.869Z,95.62
2022-10-06T06:54:32.841Z,90.00
2022-10-06T06:55:32.863Z,95.62
2022-10-06T06:56:32.831Z,90.00
2022-10-06T06:57:32.834Z,95.62
2022-10-06T06:58:33.198Z,101.25
2022-10-06T06:59:32.817Z,95.62
2022-10-06T07:00:36.175Z,95.62
2022-10-06T07:01:32.823Z,95.62
2022-10-06T07:02:32.796Z,101.25
2022-10-06T07:03:55.943Z,101.25
2022-10-06T07:04:33.753Z,101.25
2022-10-06T07:05:32.741Z,95.62
2022-10-06T07:06:32.727Z,101.25
2022-10-06T07:07:32.743Z,95.62
2022-10-06T07:08:33.077Z,95.62
2022-10-06T07:09:32.693Z,101.25
2022-10-06T07:10:32.661Z,95.62
2022-10-06T07:11:32.644Z,101.25
2022-10-06T07:12:32.680Z,112.50
2022-10-06T07:13:32.682Z,112.50
2022-10-06T07:14:32.614Z,106.88
2022-10-06T07:15:32.687Z,106.88
2022-10-06T07:16:32.629Z,106.88
2022-10-06T07:17:32.615Z,106.88
2022-10-06T07:18:33.010Z,106.88
2022-10-06T07:19:32.578Z,106.88
2022-10-06T07:20:32.545Z,101.25
2022-10-06T07:21:32.577Z,101.25
2022-10-06T07:22:32.548Z,106.88
2022-10-06T07:23:32.542Z,106.88
2022-10-06T07:24:32.515Z,112.50
2022-10-06T07:25:32.497Z,106.88
2022-10-06T07:26:32.520Z,106.88
2022-10-06T07:27:32.482Z,112.50
2022-10-06T07:28:32.523Z,118.12
2022-10-06T07:29:32.456Z,129.38
2022-10-06T07:30:34.982Z,123.75
2022-10-06T07:31:32.470Z,123.75
2022-10-06T07:32:32.436Z,118.12
2022-10-06T07:33:32.437Z,123.75
2022-10-06T07:34:32.484Z,135.00
2022-10-06T07:35:32.405Z,129.38
2022-10-06T07:36:32.379Z,123.75
2022-10-06T07:37:32.385Z,135.00
2022-10-06T07:38:32.356Z,135.00
2022-10-06T07:39:32.344Z,123.75
2022-10-06T07:40:32.329Z,123.75
2022-10-06T07:41:32.324Z,123.75
2022-10-06T07:42:32.586Z,129.38
2022-10-06T07:43:32.308Z,129.38
2022-10-06T07:44:32.291Z,135.00
2022-10-06T07:45:32.330Z,129.38
2022-10-06T07:46:32.268Z,129.38
2022-10-06T07:47:32.278Z,129.38
2022-10-06T07:48:32.230Z,140.62
2022-10-06T07:49:32.251Z,140.62
2022-10-06T07:50:32.228Z,151.88
2022-10-06T07:51:32.216Z,157.50
2022-10-06T07:52:32.205Z,163.12
2022-10-06T07:53:32.187Z,157.50
2022-10-06T07:54:32.169Z,168.75
2022-10-06T07:55:32.312Z,168.75
2022-10-06T07:56:32.151Z,174.38
2022-10-06T07:57:32.186Z,168.75
2022-10-06T07:58:32.129Z,180.00
2022-10-06T07:59:32.187Z,174.38
2022-10-06T08:01:32.148Z,146.25
2022-10-06T08:02:35.479Z,146.25
2022-10-06T08:03:32.078Z,151.88
2022-10-06T08:04:32.052Z,157.50
2022-10-06T08:05:32.048Z,163.12
2022-10-06T08:06:32.069Z,168.75
2022-10-06T08:07:32.043Z,185.62
2022-10-06T08:08:32.011Z,185.62
2022-10-06T08:09:32.037Z,157.50
2022-10-06T08:10:32.002Z,174.38
2022-10-06T08:11:31.973Z,174.38
2022-10-06T08:12:32.040Z,180.00
2022-10-06T08:13:31.962Z,185.62
2022-10-06T08:14:31.961Z,191.25
2022-10-06T08:15:31.943Z,185.62
2022-10-06T08:16:32.014Z,185.62
2022-10-06T08:17:31.950Z,185.62
2022-10-06T08:18:45.986Z,185.62
2022-10-06T08:19:32.896Z,191.25
2022-10-06T08:20:31.894Z,191.25
2022-10-06T08:21:31.909Z,191.25
2022-10-06T08:22:31.853Z,185.62
2022-10-06T08:23:31.846Z,185.62
2022-10-06T08:24:48.116Z,185.62
2022-10-06T08:25:32.812Z,185.62
2022-10-06T08:26:31.813Z,196.88
2022-10-06T08:27:31.807Z,191.25
2022-10-06T08:28:31.849Z,191.25
2022-10-06T08:29:31.782Z,196.88
2022-10-06T08:30:31.752Z,196.88
2022-10-06T08:31:31.805Z,196.88
2022-10-06T08:32:31.734Z,196.88
2022-10-06T08:33:31.730Z,196.88
2022-10-06T08:34:31.722Z,196.88
2022-10-06T08:35:31.695Z,196.88
2022-10-06T08:36:32.749Z,196.88
2022-10-06T08:37:31.698Z,196.88
2022-10-06T08:38:31.684Z,202.50
2022-10-06T08:39:31.670Z,196.88
2022-10-06T08:40:31.669Z,208.12
2022-10-06T08:41:31.618Z,196.88
2022-10-06T08:42:31.620Z,202.50
2022-10-06T08:43:31.613Z,202.50
2022-10-06T08:44:31.589Z,202.50
2022-10-06T08:45:35.041Z,208.12
2022-10-06T08:46:32.597Z,202.50
2022-10-06T08:47:31.557Z,202.50
2022-10-06T08:48:31.536Z,202.50
2022-10-06T08:49:31.564Z,202.50
2022-10-06T08:50:31.506Z,202.50
2022-10-06T08:51:31.520Z,202.50
2022-10-06T08:52:31.514Z,202.50
2022-10-06T08:53:31.470Z,202.50
2022-10-06T08:54:31.541Z,202.50
2022-10-06T08:55:31.456Z,202.50
2022-10-06T08:56:31.488Z,202.50
2022-10-06T08:57:31.449Z,208.12
2022-10-06T08:58:33.250Z,202.50
2022-10-06T08:59:31.418Z,208.12
2022-10-06T09:00:31.425Z,208.12
2022-10-06T09:01:31.443Z,208.12
2022-10-06T09:02:31.634Z,208.12
2022-10-06T09:03:31.362Z,208.12
2022-10-06T09:04:31.358Z,208.12
2022-10-06T09:05:31.339Z,208.12
2022-10-06T09:06:31.330Z,208.12
2022-10-06T09:07:31.324Z,208.12
2022-10-06T09:08:31.311Z,208.12
2022-10-06T09:09:31.301Z,208.12
2022-10-06T09:10:31.331Z,213.75
2022-10-06T09:11:31.261Z,213.75
2022-10-06T09:12:31.284Z,213.75
2022-10-06T09:13:31.234Z,208.12
2022-10-06T09:14:31.241Z,213.75
2022-10-06T09:15:31.233Z,213.75
2022-10-06T09:16:31.257Z,213.75
2022-10-06T09:17:31.212Z,219.38
2022-10-06T09:18:49.531Z,219.38
2022-10-06T09:19:33.859Z,219.38
2022-10-06T09:20:31.173Z,219.38
2022-10-06T09:21:31.180Z,219.38
2022-10-06T09:22:31.190Z,213.75
2022-10-06T09:23:31.126Z,196.88
2022-10-06T09:24:31.110Z,225.00
2022-10-06T09:25:31.118Z,225.00
2022-10-06T09:26:31.096Z,230.62
2022-10-06T09:27:31.103Z,230.62
2022-10-06T09:28:31.108Z,225.00
2022-10-06T09:29:31.074Z,219.38
2022-10-06T09:30:31.043Z,225.00
2022-10-06T09:31:31.096Z,225.00
2022-10-06T09:32:31.025Z,225.00
2022-10-06T09:33:31.014Z,236.25
2022-10-06T09:34:30.997Z,225.00
2022-10-06T09:35:30.985Z,225.00
2022-10-06T09:36:30.973Z,230.62
2022-10-06T09:37:30.986Z,230.62
2022-10-06T09:38:30.949Z,236.25
2022-10-06T09:39:30.977Z,241.88
2022-10-06T09:40:30.925Z,236.25
2022-10-06T09:41:30.955Z,241.88
2022-10-06T09:42:30.975Z,236.25
2022-10-06T09:43:30.897Z,230.62
2022-10-06T09:44:30.887Z,230.62
2022-10-06T09:45:30.878Z,225.00
2022-10-06T09:46:30.850Z,230.62
2022-10-06T09:47:30.855Z,230.62
2022-10-06T09:48:30.856Z,230.62
2022-10-06T09:49:30.827Z,230.62
2022-10-06T09:50:30.822Z,236.25
2022-10-06T09:51:30.809Z,236.25
2022-10-06T09:52:30.809Z,236.25
2022-10-06T09:53:34.267Z,236.25
2022-10-06T09:54:31.769Z,230.62
2022-10-06T09:55:30.761Z,230.62
2022-10-06T09:56:30.739Z,236.25
2022-10-06T09:57:30.818Z,236.25
2022-10-06T09:58:30.729Z,236.25
2022-10-06T09:59:30.718Z,236.25
2022-10-06T10:00:30.740Z,241.88
2022-10-06T10:01:30.749Z,241.88
2022-10-06T10:02:30.717Z,241.88
2022-10-06T10:03:30.658Z,241.88
2022-10-06T10:04:30.664Z,241.88
2022-10-06T10:05:30.678Z,241.88
2022-10-06T10:06:30.639Z,241.88
2022-10-06T10:07:30.665Z,241.88
2022-10-06T10:08:30.720Z,241.88
2022-10-06T10:09:30.594Z,241.88
2022-10-06T10:10:30.579Z,241.88
2022-10-06T10:11:30.575Z,241.88
2022-10-06T10:12:30.585Z,241.88
2022-10-06T10:13:30.534Z,247.50
2022-10-06T10:14:30.544Z,241.88
2022-10-06T10:15:30.533Z,241.88
2022-10-06T10:16:30.562Z,241.88
2022-10-06T10:17:30.532Z,241.88
2022-10-06T10:18:30.497Z,241.88
2022-10-06T10:19:30.482Z,241.88
2022-10-06T10:20:30.464Z,241.88
2022-10-06T10:21:30.472Z,241.88
2022-10-06T10:22:30.467Z,241.88
2022-10-06T10:23:32.041Z,241.88
2022-10-06T10:24:30.425Z,241.88
2022-10-06T10:25:30.417Z,241.88
2022-10-06T10:26:30.406Z,241.88
2022-10-06T10:27:30.416Z,241.88
2022-10-06T10:28:30.412Z,241.88
2022-10-06T10:29:32.755Z,241.88
2022-10-06T10:30:30.629Z,241.88
2022-10-06T10:31:30.385Z,241.88
2022-10-06T10:32:30.596Z,241.88
2022-10-06T10:33:30.326Z,241.88
2022-10-06T10:34:30.320Z,241.88
2022-10-06T10:35:30.297Z,241.88
2022-10-06T10:36:30.298Z,241.88
2022-10-06T10:37:30.308Z,247.50
2022-10-06T10:38:30.260Z,241.88
2022-10-06T10:39:30.257Z,241.88
2022-10-06T10:40:30.271Z,247.50
2022-10-06T10:41:30.248Z,247.50
2022-10-06T10:42:30.221Z,247.50
2022-10-06T10:43:30.322Z,247.50
2022-10-06T10:44:30.196Z,247.50
2022-10-06T10:45:30.201Z,247.50
2022-10-06T10:46:30.238Z,247.50
2022-10-06T10:47:30.169Z,247.50
2022-10-06T10:48:30.155Z,247.50
2022-10-06T10:49:30.160Z,247.50
2022-10-06T10:50:30.137Z,247.50
2022-10-06T10:51:30.138Z,247.50
2022-10-06T10:52:30.123Z,247.50
2022-10-06T10:53:30.118Z,247.50
2022-10-06T10:54:30.101Z,247.50
2022-10-06T10:55:30.077Z,247.50
2022-10-06T10:56:30.080Z,247.50
2022-10-06T10:57:30.322Z,247.50
2022-10-06T10:58:30.046Z,247.50
2022-10-06T10:59:30.046Z,247.50
2022-10-06T11:00:30.032Z,247.50
2022-10-06T11:01:30.025Z,247.50
2022-10-06T11:02:30.006Z,247.50
2022-10-06T11:03:30.007Z,247.50
2022-10-06T11:04:29.986Z,247.50
2022-10-06T11:05:29.963Z,247.50
2022-10-06T11:06:29.973Z,247.50
2022-10-06T11:07:29.957Z,247.50
2022-10-06T11:08:29.937Z,247.50
2022-10-06T11:09:29.923Z,247.50
2022-10-06T11:10:29.918Z,247.50
2022-10-06T11:11:29.917Z,247.50
2022-10-06T11:12:29.915Z,247.50
2022-10-06T11:13:29.908Z,247.50
2022-10-06T11:14:29.876Z,247.50
2022-10-06T11:15:29.864Z,241.88
2022-10-06T11:16:29.976Z,247.50
2022-10-06T11:17:29.931Z,247.50
2022-10-06T11:18:29.826Z,247.50
2022-10-06T11:19:29.811Z,247.50
2022-10-06T11:20:29.826Z,247.50
2022-10-06T11:21:29.816Z,247.50
2022-10-06T11:22:29.795Z,247.50
2022-10-06T11:23:29.778Z,247.50
2022-10-06T11:24:29.754Z,247.50
2022-10-06T11:25:32.703Z,247.50
2022-10-06T11:26:30.777Z,247.50
2022-10-06T11:27:29.731Z,247.50
2022-10-06T11:28:29.731Z,247.50
2022-10-06T11:29:29.716Z,247.50
2022-10-06T11:30:29.704Z,247.50
2022-10-06T11:31:29.733Z,247.50
2022-10-06T11:32:29.669Z,247.50
2022-10-06T11:33:29.656Z,247.50
2022-10-06T11:34:29.644Z,247.50
2022-10-06T11:35:29.642Z,247.50
2022-10-06T11:36:29.639Z,247.50
2022-10-06T11:37:29.610Z,247.50
2022-10-06T11:38:29.609Z,247.50
2022-10-06T11:39:29.592Z,247.50
2022-10-06T11:40:29.570Z,247.50
2022-10-06T11:41:29.582Z,247.50
2022-10-06T11:43:29.577Z,247.50
2022-10-06T11:44:29.524Z,247.50
2022-10-06T11:45:29.561Z,247.50
2022-10-06T11:46:31.862Z,247.50
2022-10-06T11:47:35.304Z,247.50
2022-10-06T11:48:30.490Z,247.50
2022-10-06T11:49:29.462Z,253.12
2022-10-06T11:50:29.452Z,247.50
2022-10-06T11:51:29.470Z,247.50
2022-10-06T11:52:29.712Z,247.50
2022-10-06T11:53:29.423Z,247.50
2022-10-06T11:54:29.413Z,247.50
2022-10-06T11:55:29.403Z,247.50
2022-10-06T11:56:29.403Z,247.50
2022-10-06T11:57:31.250Z,247.50
2022-10-06T11:58:42.062Z,247.50
2022-10-06T11:59:30.362Z,247.50
2022-10-06T12:00:29.324Z,247.50
2022-10-06T12:01:29.355Z,247.50
2022-10-06T12:02:29.528Z,247.50
2022-10-06T12:03:29.310Z,247.50
2022-10-06T12:04:29.320Z,247.50
2022-10-06T12:05:55.370Z,247.50
2022-10-06T12:06:30.305Z,247.50
2022-10-06T12:07:29.277Z,247.50
2022-10-06T12:08:29.236Z,247.50
2022-10-06T12:09:29.227Z,247.50
2022-10-06T12:10:29.219Z,247.50
2022-10-06T12:11:29.215Z,241.88
2022-10-06T12:12:29.275Z,247.50
2022-10-06T12:17:30.128Z,241.88
2022-10-06T12:18:29.113Z,241.88
2022-10-06T12:19:29.106Z,241.88
2022-10-06T12:20:29.096Z,241.88
2022-10-06T12:21:29.110Z,241.88
2022-10-06T12:22:29.081Z,241.88
2022-10-06T12:23:29.058Z,241.88
2022-10-06T12:24:29.070Z,241.88
2022-10-06T12:25:29.055Z,241.88
2022-10-06T12:26:29.032Z,241.88
2022-10-06T12:27:29.022Z,241.88
2022-10-06T12:28:29.053Z,236.25
2022-10-06T12:29:29.001Z,236.25
2022-10-06T12:30:29.043Z,236.25
2022-10-06T12:31:29.023Z,236.25
2022-10-06T12:32:28.969Z,236.25
2022-10-06T12:33:28.942Z,236.25
2022-10-06T12:34:28.942Z,236.25
2022-10-06T12:35:28.975Z,236.25
2022-10-06T12:36:28.933Z,236.25
2022-10-06T12:37:28.902Z,236.25
2022-10-06T12:38:28.902Z,236.25
2022-10-06T12:39:28.872Z,236.25
2022-10-06T12:40:28.864Z,236.25
2022-10-06T12:41:28.874Z,236.25
2022-10-06T12:42:28.847Z,236.25
2022-10-06T12:43:28.823Z,236.25
2022-10-06T12:44:28.824Z,236.25
2022-10-06T12:45:28.807Z,236.25
2022-10-06T12:46:28.869Z,236.25
2022-10-06T12:47:28.784Z,236.25
2022-10-06T12:48:28.778Z,236.25
2022-10-06T12:49:28.746Z,236.25
2022-10-06T12:50:28.751Z,236.25
2022-10-06T12:51:28.856Z,236.25
2022-10-06T12:52:28.739Z,236.25
2022-10-06T12:53:28.741Z,236.25
2022-10-06T12:54:28.713Z,236.25
2022-10-06T12:55:28.677Z,236.25
2022-10-06T12:56:28.690Z,236.25
2022-10-06T12:57:28.655Z,236.25
2022-10-06T12:58:28.639Z,236.25